Nong Khai, Thailand
Current Conditions -  °F | °C
As of 3:00 PM on Monday 24 Nov 2014 (Local Time) from VLVT Reporting Station
Clear Clear  
Wind Chill: 88°   Ceiling: Unl
Heat Index: 89°   Visibility: 6mi
Dew Point: 64°   Wind: 2mph
Humidity: 46%   Direction: 180°S
Pressure: 29.83"   Gusts: NA
Location:  17.88°N, 102.74°E
Report Text: VLVT 240800Z 18002KT 9999 NSC 31/18 Q1010 NOSIG
Loading
Personal Weather Stations






























Interactive Weather Map New forecast layout! Learn more

10-Day Weather Forecast

Advertisements
Track Severe Weather on mobile